createdAt,value
2023-07-23T00:00:52.019Z,8.40
2023-07-23T00:03:39.694Z,8.90
2023-07-23T00:06:07.450Z,11.50
2023-07-23T00:08:35.236Z,10.60
2023-07-23T00:11:02.911Z,11.00
2023-07-23T00:13:30.625Z,11.20
2023-07-23T00:15:58.412Z,9.30
2023-07-23T00:18:26.228Z,10.20
2023-07-23T00:20:53.987Z,9.60
2023-07-23T00:23:21.762Z,8.50
2023-07-23T00:25:50.084Z,11.30
2023-07-23T00:28:17.742Z,10.50
2023-07-23T00:30:45.471Z,8.80
2023-07-23T00:33:14.197Z,9.70
2023-07-23T00:35:41.853Z,9.90
2023-07-23T00:38:09.575Z,8.60
2023-07-23T00:40:37.361Z,10.50
2023-07-23T00:43:04.980Z,12.10
2023-07-23T00:45:33.925Z,10.80
2023-07-23T00:48:01.673Z,10.50
2023-07-23T00:50:30.494Z,10.00
2023-07-23T00:52:58.301Z,14.40
2023-07-23T00:55:27.320Z,13.80
2023-07-23T00:57:55.814Z,12.00
2023-07-23T01:00:23.595Z,11.10
2023-07-23T01:02:51.366Z,11.70
2023-07-23T01:05:19.513Z,8.90
2023-07-23T01:07:49.760Z,11.80
2023-07-23T01:10:20.758Z,8.70
2023-07-23T01:12:48.545Z,10.90
2023-07-23T01:15:17.482Z,9.90
2023-07-23T01:17:47.490Z,12.60
2023-07-23T01:20:15.281Z,11.80
2023-07-23T01:22:42.954Z,12.00
2023-07-23T01:25:10.693Z,12.90
2023-07-23T01:27:38.394Z,13.40
2023-07-23T01:30:11.375Z,11.30
2023-07-23T01:32:39.845Z,10.50
2023-07-23T01:35:14.705Z,9.80
2023-07-23T01:37:48.652Z,11.40
2023-07-23T01:40:17.070Z,13.00
2023-07-23T01:42:45.940Z,10.30
2023-07-23T01:45:14.986Z,10.60
2023-07-23T01:47:42.850Z,11.20
2023-07-23T01:50:10.816Z,10.80
2023-07-23T01:52:38.534Z,11.20
2023-07-23T01:55:07.134Z,10.20
2023-07-23T01:57:34.918Z,17.60
2023-07-23T02:00:04.738Z,13.10
2023-07-23T02:02:32.553Z,13.60
2023-07-23T02:05:00.547Z,13.70
2023-07-23T02:07:28.173Z,10.60
2023-07-23T02:09:55.869Z,13.40
2023-07-23T02:12:23.563Z,12.10
2023-07-23T02:14:51.579Z,10.60
2023-07-23T02:17:19.276Z,11.30
2023-07-23T02:19:46.927Z,12.70
2023-07-23T02:22:14.653Z,11.90
2023-07-23T02:24:42.428Z,13.80
2023-07-23T02:27:11.448Z,12.50
2023-07-23T02:29:40.107Z,12.30
2023-07-23T02:32:08.497Z,12.80
2023-07-23T02:34:36.207Z,10.10
2023-07-23T02:37:04.172Z,11.20
2023-07-23T02:39:31.876Z,11.80
2023-07-23T02:41:59.790Z,12.00
2023-07-23T02:44:27.461Z,13.50
2023-07-23T02:46:55.154Z,11.50
2023-07-23T02:49:22.861Z,13.10
2023-07-23T02:51:50.493Z,10.70
2023-07-23T02:54:18.181Z,12.70
2023-07-23T02:56:45.831Z,12.10
2023-07-23T02:59:13.495Z,11.10
2023-07-23T03:01:41.165Z,12.80
2023-07-23T03:04:09.095Z,13.60
2023-07-23T03:06:36.769Z,11.30
2023-07-23T03:09:04.493Z,12.50
2023-07-23T03:11:33.145Z,12.80
2023-07-23T03:14:00.779Z,10.10
2023-07-23T03:16:28.570Z,15.60
2023-07-23T03:19:03.357Z,16.00
2023-07-23T03:21:31.124Z,10.90
2023-07-23T03:23:58.824Z,14.00
2023-07-23T03:26:26.480Z,12.30
2023-07-23T03:28:54.189Z,12.10
2023-07-23T03:31:21.868Z,11.70
2023-07-23T03:33:49.619Z,10.90
2023-07-23T03:36:17.338Z,11.50
2023-07-23T03:38:44.994Z,14.40
2023-07-23T03:41:12.855Z,12.30
2023-07-23T03:43:40.501Z,10.90
2023-07-23T03:46:08.269Z,11.70
2023-07-23T03:48:35.927Z,14.40
2023-07-23T03:51:03.643Z,12.20
2023-07-23T03:53:31.409Z,12.40
2023-07-23T03:55:59.073Z,10.60
2023-07-23T03:58:26.749Z,11.90
2023-07-23T04:00:54.439Z,13.70
2023-07-23T04:03:22.233Z,10.80
2023-07-23T04:05:49.942Z,14.30
2023-07-23T04:08:17.597Z,11.00
2023-07-23T04:10:45.643Z,10.90
2023-07-23T04:13:13.386Z,11.30
2023-07-23T04:15:41.036Z,14.30
2023-07-23T04:18:14.849Z,10.90
2023-07-23T04:20:42.884Z,13.20
2023-07-23T04:23:10.566Z,15.10
2023-07-23T04:25:38.917Z,12.60
2023-07-23T04:28:06.583Z,9.80
2023-07-23T04:30:34.934Z,10.30
2023-07-23T04:33:03.150Z,11.30
2023-07-23T04:35:30.942Z,11.70
2023-07-23T04:37:58.591Z,12.90
2023-07-23T04:40:26.330Z,11.70
2023-07-23T04:42:54.016Z,10.60
2023-07-23T04:45:21.692Z,11.40
2023-07-23T04:47:49.371Z,10.70
2023-07-23T04:50:17.194Z,11.70
2023-07-23T04:52:44.935Z,12.40
2023-07-23T04:55:12.666Z,9.60
2023-07-23T04:57:40.377Z,13.60
2023-07-23T05:00:08.759Z,9.90
2023-07-23T05:02:36.477Z,10.30
2023-07-23T05:05:04.541Z,11.30
2023-07-23T05:07:32.240Z,12.90
2023-07-23T05:09:59.970Z,11.40
2023-07-23T05:12:28.240Z,10.70
2023-07-23T05:15:11.757Z,13.00
2023-07-23T05:17:41.202Z,12.60
2023-07-23T05:20:10.248Z,11.40
2023-07-23T05:22:40.333Z,14.60
2023-07-23T05:25:09.256Z,12.00
2023-07-23T05:27:37.149Z,11.80
2023-07-23T05:30:05.904Z,11.80
2023-07-23T05:32:34.280Z,9.70
2023-07-23T05:35:02.345Z,10.20
2023-07-23T05:37:29.962Z,9.20
2023-07-23T05:39:57.559Z,12.70
2023-07-23T05:42:25.240Z,11.90
2023-07-23T05:44:52.897Z,10.80
2023-07-23T05:47:20.554Z,11.00
2023-07-23T05:49:48.196Z,9.80
2023-07-23T05:52:16.355Z,10.60
2023-07-23T05:54:44.075Z,13.10
2023-07-23T05:57:11.735Z,10.30
2023-07-23T05:59:39.411Z,10.90
2023-07-23T06:02:07.226Z,11.30
2023-07-23T06:04:35.292Z,12.80
2023-07-23T06:07:03.157Z,11.90
2023-07-23T06:09:30.810Z,11.00
2023-07-23T06:11:58.434Z,13.00
2023-07-23T06:14:26.296Z,10.10
2023-07-23T06:16:54.390Z,13.60
2023-07-23T06:19:22.483Z,12.00
2023-07-23T06:21:50.220Z,20.20
2023-07-23T06:24:17.907Z,13.60
2023-07-23T06:26:45.596Z,13.30
2023-07-23T06:29:13.227Z,12.20
2023-07-23T06:31:41.052Z,13.00
2023-07-23T06:34:10.480Z,10.30
2023-07-23T06:36:38.227Z,11.20
2023-07-23T06:39:05.874Z,12.80
2023-07-23T06:41:33.959Z,12.80
2023-07-23T06:44:01.709Z,11.70
2023-07-23T06:46:29.490Z,14.60
2023-07-23T06:48:57.224Z,9.90
2023-07-23T06:51:26.913Z,9.30
2023-07-23T06:53:54.970Z,9.40
2023-07-23T06:56:22.627Z,9.70
2023-07-23T06:58:50.392Z,10.80
2023-07-23T07:01:18.004Z,10.70
2023-07-23T07:03:45.784Z,10.00
2023-07-23T07:06:13.599Z,9.60
2023-07-23T07:08:41.273Z,10.40
2023-07-23T07:11:11.308Z,9.40
2023-07-23T07:13:39.909Z,10.40
2023-07-23T07:16:07.604Z,10.50
2023-07-23T07:18:35.424Z,9.50
2023-07-23T07:21:03.395Z,11.60
2023-07-23T07:23:32.450Z,11.60
2023-07-23T07:26:01.982Z,9.10
2023-07-23T07:28:33.398Z,10.20
2023-07-23T07:31:03.003Z,9.80
2023-07-23T07:33:31.381Z,8.30
2023-07-23T07:36:01.505Z,7.80
2023-07-23T07:38:29.504Z,8.10
2023-07-23T07:40:58.838Z,9.00
2023-07-23T07:43:26.913Z,8.40
2023-07-23T07:45:59.500Z,8.20
2023-07-23T07:48:31.745Z,8.00
2023-07-23T07:51:05.727Z,8.80
2023-07-23T07:53:36.408Z,7.80
2023-07-23T07:56:05.485Z,8.50
2023-07-23T07:58:34.186Z,9.20
2023-07-23T08:01:05.551Z,8.10
2023-07-23T08:03:34.728Z,8.30
2023-07-23T08:06:03.203Z,8.90
2023-07-23T08:08:34.582Z,10.10
2023-07-23T08:11:04.689Z,10.90
2023-07-23T08:13:33.234Z,8.70
2023-07-23T08:16:01.548Z,6.40
2023-07-23T08:18:29.576Z,8.50
2023-07-23T08:20:58.739Z,7.30
2023-07-23T08:23:27.234Z,7.80
2023-07-23T08:25:59.543Z,7.50
2023-07-23T08:28:30.568Z,7.20
2023-07-23T08:31:01.483Z,7.00
2023-07-23T08:33:33.396Z,8.30
2023-07-23T08:36:02.867Z,7.30
2023-07-23T08:38:31.949Z,9.20
2023-07-23T08:41:04.646Z,7.40
2023-07-23T08:44:06.735Z,6.80
2023-07-23T08:46:46.706Z,8.50
2023-07-23T08:49:18.716Z,6.00
2023-07-23T08:51:49.108Z,8.20
2023-07-23T08:54:20.435Z,6.40
2023-07-23T08:56:48.218Z,6.30
2023-07-23T08:59:15.926Z,6.00
2023-07-23T09:01:44.406Z,8.20
2023-07-23T09:04:14.535Z,9.50
2023-07-23T09:06:47.123Z,6.20
2023-07-23T09:09:15.423Z,10.40
2023-07-23T09:11:43.597Z,5.70
2023-07-23T09:14:17.312Z,7.50
2023-07-23T09:16:49.333Z,5.40
2023-07-23T09:19:27.844Z,6.20
2023-07-23T09:21:59.199Z,5.70
2023-07-23T09:24:34.768Z,8.00
2023-07-23T09:27:03.973Z,8.10
2023-07-23T09:29:37.578Z,6.80
2023-07-23T09:32:16.131Z,6.70
2023-07-23T09:34:47.658Z,7.20
2023-07-23T09:37:18.783Z,6.50
2023-07-23T09:39:46.498Z,7.40
2023-07-23T09:42:14.887Z,5.30
2023-07-23T09:44:43.151Z,5.50
2023-07-23T09:47:10.891Z,4.90
2023-07-23T09:49:39.076Z,6.90
2023-07-23T09:52:10.485Z,5.40
2023-07-23T09:54:38.508Z,5.30
2023-07-23T09:57:08.549Z,6.40
2023-07-23T09:59:37.676Z,5.30
2023-07-23T10:02:09.854Z,7.20
2023-07-23T10:04:39.298Z,6.00
2023-07-23T10:07:08.421Z,5.40
2023-07-23T10:09:37.138Z,7.10
2023-07-23T10:12:06.230Z,7.40
2023-07-23T10:14:33.925Z,4.80
2023-07-23T10:19:31.151Z,6.20
2023-07-23T10:21:59.009Z,6.10
2023-07-23T10:24:52.827Z,6.80
2023-07-23T10:27:21.124Z,6.70
2023-07-23T10:30:19.498Z,7.00
2023-07-23T10:33:11.801Z,4.50
2023-07-23T10:35:56.000Z,5.60
2023-07-23T10:38:30.250Z,6.20
2023-07-23T10:40:59.429Z,6.10
2023-07-23T10:43:45.149Z,5.30
2023-07-23T10:46:19.714Z,6.80
2023-07-23T10:48:53.686Z,5.50
2023-07-23T10:51:25.060Z,5.60
2023-07-23T10:53:55.521Z,5.40
2023-07-23T10:56:34.743Z,6.20
2023-07-23T10:59:09.052Z,4.90
2023-07-23T11:01:42.415Z,5.00
2023-07-23T11:04:15.954Z,6.50
2023-07-23T11:07:08.044Z,6.10
2023-07-23T11:09:38.627Z,6.30
2023-07-23T11:12:07.337Z,5.20
2023-07-23T11:14:36.160Z,5.60
2023-07-23T11:17:05.815Z,5.40
2023-07-23T11:19:33.731Z,6.70
2023-07-23T11:22:06.074Z,6.60
2023-07-23T11:24:34.782Z,5.50
2023-07-23T11:27:04.618Z,6.00
2023-07-23T11:29:35.159Z,6.40
2023-07-23T11:32:04.605Z,7.60
2023-07-23T11:34:32.756Z,6.50
2023-07-23T11:37:00.535Z,6.50
2023-07-23T11:39:28.399Z,5.70
2023-07-23T11:41:56.132Z,6.00
2023-07-23T11:44:24.061Z,5.00
2023-07-23T11:47:02.875Z,6.10
2023-07-23T11:49:30.800Z,8.20
2023-07-23T11:52:00.054Z,5.50
2023-07-23T11:54:27.934Z,6.80
2023-07-23T11:56:55.698Z,5.20
2023-07-23T11:59:23.537Z,5.50
2023-07-23T12:01:58.022Z,5.40
2023-07-23T12:04:25.959Z,5.30
2023-07-23T12:06:53.763Z,9.20
2023-07-23T12:09:21.504Z,7.00
2023-07-23T12:11:49.444Z,5.10
2023-07-23T12:14:17.158Z,5.90
2023-07-23T12:16:48.146Z,6.10
2023-07-23T12:19:22.701Z,6.50
2023-07-23T12:21:56.128Z,10.50
2023-07-23T12:24:30.099Z,5.90
2023-07-23T12:27:01.667Z,5.50
2023-07-23T12:29:29.981Z,6.60
2023-07-23T12:32:19.130Z,5.90
2023-07-23T12:34:54.386Z,5.50
2023-07-23T12:37:24.827Z,5.20
2023-07-23T12:40:13.091Z,5.80
2023-07-23T12:42:50.416Z,5.60
2023-07-23T12:45:22.047Z,6.30
2023-07-23T12:47:50.327Z,7.50
2023-07-23T12:50:18.792Z,6.10
2023-07-23T12:52:46.643Z,5.30
2023-07-23T12:55:14.808Z,6.60
2023-07-23T12:57:42.524Z,5.90
2023-07-23T13:00:11.434Z,6.50
2023-07-23T13:02:39.162Z,7.00
2023-07-23T13:05:07.472Z,6.30
2023-07-23T13:07:35.206Z,6.90
2023-07-23T13:10:03.768Z,6.90
2023-07-23T13:12:31.477Z,8.50
2023-07-23T13:14:59.105Z,6.40
2023-07-23T13:17:26.902Z,6.20
2023-07-23T13:19:54.669Z,6.20
2023-07-23T13:22:22.426Z,6.00
2023-07-23T13:24:50.087Z,6.20
2023-07-23T13:27:18.051Z,5.80
2023-07-23T13:29:45.650Z,6.90
2023-07-23T13:32:13.320Z,6.50
2023-07-23T13:34:40.948Z,6.30
2023-07-23T13:37:08.770Z,6.80
2023-07-23T13:39:36.436Z,6.50
2023-07-23T13:42:04.690Z,7.20
2023-07-23T13:44:33.423Z,6.40
2023-07-23T13:47:01.171Z,6.50
2023-07-23T13:49:28.883Z,6.50
2023-07-23T13:51:57.109Z,7.80
2023-07-23T13:54:24.886Z,8.50
2023-07-23T13:56:52.773Z,8.00
2023-07-23T13:59:20.561Z,7.30
2023-07-23T14:01:48.249Z,6.60
2023-07-23T14:04:15.973Z,8.00
2023-07-23T14:06:43.707Z,6.60
2023-07-23T14:09:12.914Z,5.80
2023-07-23T14:11:41.797Z,6.30
2023-07-23T14:14:09.885Z,7.10
2023-07-23T14:16:37.663Z,6.80
2023-07-23T14:19:05.484Z,7.20
2023-07-23T14:21:33.198Z,7.00
2023-07-23T14:24:00.997Z,7.30
2023-07-23T14:26:28.689Z,6.00
2023-07-23T14:28:56.392Z,6.90
2023-07-23T14:31:24.291Z,9.10
2023-07-23T14:33:52.270Z,5.40
2023-07-23T14:36:20.202Z,5.90
2023-07-23T14:38:47.990Z,7.20
2023-07-23T14:41:15.686Z,7.90
2023-07-23T14:43:43.684Z,7.30
2023-07-23T14:46:11.422Z,9.00
2023-07-23T14:48:39.489Z,6.30
2023-07-23T14:51:07.985Z,6.90
2023-07-23T14:53:35.732Z,5.80
2023-07-23T14:56:03.550Z,7.00
2023-07-23T14:58:31.395Z,7.80
2023-07-23T15:00:59.041Z,5.30
2023-07-23T15:03:27.363Z,7.20
2023-07-23T15:05:55.438Z,8.00
2023-07-23T15:08:23.255Z,6.20
2023-07-23T15:10:51.068Z,7.10
2023-07-23T15:13:19.415Z,6.50
2023-07-23T15:15:47.432Z,5.70
2023-07-23T15:18:15.480Z,7.60
2023-07-23T15:20:43.539Z,10.10
2023-07-23T15:23:11.683Z,6.80
2023-07-23T15:25:39.950Z,9.10
2023-07-23T15:28:10.570Z,6.40
2023-07-23T15:30:38.437Z,6.60
2023-07-23T15:33:06.202Z,5.80
2023-07-23T15:35:33.931Z,5.50
2023-07-23T15:38:01.917Z,8.80
2023-07-23T15:40:29.668Z,7.90
2023-07-23T15:42:57.338Z,6.30
2023-07-23T15:45:25.786Z,6.20
2023-07-23T15:47:53.490Z,8.70
2023-07-23T15:50:21.304Z,6.90
2023-07-23T15:52:48.964Z,7.20
2023-07-23T15:55:17.425Z,8.30
2023-07-23T15:57:46.133Z,8.30
2023-07-23T16:00:14.134Z,5.60
2023-07-23T16:02:41.829Z,6.70
2023-07-23T16:05:09.892Z,7.00
2023-07-23T16:07:37.697Z,7.70
2023-07-23T16:10:05.683Z,7.50
2023-07-23T16:12:33.390Z,7.50
2023-07-23T16:15:02.520Z,8.10
2023-07-23T16:17:30.226Z,8.30
2023-07-23T16:19:57.894Z,6.70
2023-07-23T16:22:25.772Z,6.30
2023-07-23T16:24:53.606Z,9.10
2023-07-23T16:27:26.344Z,8.50
2023-07-23T16:29:54.117Z,6.90
2023-07-23T16:32:22.394Z,7.50
2023-07-23T16:34:50.508Z,6.70
2023-07-23T16:37:19.574Z,7.10
2023-07-23T16:39:48.445Z,7.70
2023-07-23T16:42:19.462Z,7.20
2023-07-23T16:44:47.632Z,6.50
2023-07-23T16:47:15.289Z,8.00
2023-07-23T16:49:42.995Z,6.90
2023-07-23T16:52:10.647Z,8.00
2023-07-23T16:54:38.346Z,6.70
2023-07-23T16:57:06.809Z,7.00
2023-07-23T16:59:34.582Z,6.80
2023-07-23T17:02:02.246Z,7.30
2023-07-23T17:04:29.923Z,7.30
2023-07-23T17:06:57.678Z,6.10
2023-07-23T17:09:25.404Z,7.10
2023-07-23T17:11:53.152Z,7.00
2023-07-23T17:14:20.813Z,8.10
2023-07-23T17:16:48.537Z,7.80
2023-07-23T17:19:17.461Z,8.50
2023-07-23T17:21:45.126Z,7.80
2023-07-23T17:24:12.906Z,7.10
2023-07-23T17:26:40.991Z,7.60
2023-07-23T17:29:08.753Z,7.40
2023-07-23T17:31:36.447Z,9.10
2023-07-23T17:34:04.240Z,7.70
2023-07-23T17:36:32.141Z,7.60
2023-07-23T17:39:00.037Z,7.80
2023-07-23T17:41:27.736Z,6.20
2023-07-23T17:43:55.365Z,7.30
2023-07-23T17:46:23.097Z,7.10
2023-07-23T17:48:50.892Z,6.60
2023-07-23T17:51:18.570Z,7.30
2023-07-23T17:53:46.367Z,7.00
2023-07-23T17:56:14.060Z,6.00
2023-07-23T17:58:43.003Z,6.10
2023-07-23T18:01:27.903Z,6.80
2023-07-23T18:03:57.422Z,8.20
2023-07-23T18:06:25.294Z,6.80
2023-07-23T18:08:52.974Z,6.70
2023-07-23T18:11:20.693Z,7.30
2023-07-23T18:13:48.385Z,10.10
2023-07-23T18:16:16.269Z,7.40
2023-07-23T18:18:44.031Z,8.00
2023-07-23T18:21:11.750Z,8.30
2023-07-23T18:23:39.494Z,7.20
2023-07-23T18:26:07.354Z,8.00
2023-07-23T18:28:37.381Z,9.60
2023-07-23T18:31:15.175Z,8.00
2023-07-23T18:33:55.787Z,7.20
2023-07-23T18:36:23.549Z,7.00
2023-07-23T18:38:51.164Z,7.00
2023-07-23T18:41:18.879Z,9.30
2023-07-23T18:43:49.465Z,9.80
2023-07-23T18:46:17.249Z,8.10
2023-07-23T18:48:44.951Z,9.50
2023-07-23T18:51:12.571Z,9.20
2023-07-23T18:53:40.324Z,6.40
2023-07-23T18:56:08.041Z,9.20
2023-07-23T18:58:35.753Z,7.40
2023-07-23T19:01:03.465Z,8.50
2023-07-23T19:03:31.295Z,6.70
2023-07-23T19:05:59.007Z,7.80
2023-07-23T19:08:26.732Z,6.40
2023-07-23T19:10:54.502Z,7.80
2023-07-23T19:13:22.460Z,6.30
2023-07-23T19:15:50.254Z,7.40
2023-07-23T19:18:18.123Z,9.50
2023-07-23T19:20:45.975Z,9.50
2023-07-23T19:23:13.653Z,9.30
2023-07-23T19:25:41.356Z,8.40
2023-07-23T19:28:09.140Z,6.90
2023-07-23T19:30:39.327Z,7.00
2023-07-23T19:33:07.543Z,8.50
2023-07-23T19:35:35.298Z,8.60
2023-07-23T19:38:03.223Z,9.70
2023-07-23T19:40:30.904Z,9.30
2023-07-23T19:42:58.608Z,7.50
2023-07-23T19:45:26.346Z,14.30
2023-07-23T19:47:54.105Z,14.70
2023-07-23T19:50:23.425Z,8.70
2023-07-23T19:52:51.389Z,8.30
2023-07-23T19:55:19.036Z,7.70
2023-07-23T19:57:46.841Z,8.90
2023-07-23T20:00:14.783Z,7.30
2023-07-23T20:02:42.556Z,11.80
2023-07-23T20:05:10.384Z,7.20
2023-07-23T20:07:38.055Z,9.50
2023-07-23T20:10:06.660Z,7.50
2023-07-23T20:12:34.406Z,8.50
2023-07-23T20:15:02.017Z,10.80
2023-07-23T20:17:29.828Z,7.60
2023-07-23T20:19:57.478Z,8.70
2023-07-23T20:22:25.181Z,7.70
2023-07-23T20:24:52.999Z,7.80
2023-07-23T20:27:20.763Z,7.50
2023-07-23T20:29:48.759Z,7.80
2023-07-23T20:32:16.893Z,9.10
2023-07-23T20:34:44.997Z,7.60
2023-07-23T20:37:14.978Z,7.60
2023-07-23T20:39:44.410Z,7.90
2023-07-23T20:42:13.370Z,10.50
2023-07-23T20:44:43.745Z,6.90
2023-07-23T20:47:11.734Z,6.10
2023-07-23T20:49:39.421Z,9.10
2023-07-23T20:52:07.223Z,8.60
2023-07-23T20:54:35.058Z,7.50
2023-07-23T20:57:03.556Z,7.40
2023-07-23T20:59:31.248Z,6.90
2023-07-23T21:01:58.967Z,6.60
2023-07-23T21:04:26.901Z,7.30
2023-07-23T21:06:54.749Z,6.90
2023-07-23T21:09:22.449Z,6.10
2023-07-23T21:11:50.264Z,6.50
2023-07-23T21:14:17.982Z,7.10
2023-07-23T21:16:45.742Z,6.90
2023-07-23T21:19:14.525Z,7.20
2023-07-23T21:21:42.197Z,7.40
2023-07-23T21:24:09.875Z,7.80
2023-07-23T21:26:39.418Z,7.90
2023-07-23T21:29:10.462Z,6.70
2023-07-23T21:31:38.631Z,8.80
2023-07-23T21:34:06.355Z,8.80
2023-07-23T21:36:34.009Z,7.70
2023-07-23T21:39:01.756Z,6.50
2023-07-23T21:41:29.417Z,6.60
2023-07-23T21:43:57.128Z,6.80
2023-07-23T21:46:24.954Z,8.30
2023-07-23T21:48:52.618Z,7.80
2023-07-23T21:51:20.355Z,7.10
2023-07-23T21:53:48.068Z,7.70
2023-07-23T21:56:15.903Z,6.10
2023-07-23T21:58:43.601Z,7.00
2023-07-23T22:01:11.272Z,6.20
2023-07-23T22:03:39.179Z,7.60
2023-07-23T22:06:08.734Z,6.40
2023-07-23T22:08:36.381Z,6.90
2023-07-23T22:11:04.242Z,8.60
2023-07-23T22:13:31.978Z,5.80
2023-07-23T22:15:59.763Z,8.20
2023-07-23T22:18:27.598Z,6.20
2023-07-23T22:20:55.346Z,5.90
2023-07-23T22:23:23.091Z,7.90
2023-07-23T22:25:52.685Z,7.10
2023-07-23T22:28:20.337Z,6.60
2023-07-23T22:30:48.329Z,6.20
2023-07-23T22:33:15.961Z,6.70
2023-07-23T22:35:43.606Z,6.20
2023-07-23T22:38:11.333Z,6.30
2023-07-23T22:40:38.962Z,6.50
2023-07-23T22:43:06.703Z,6.40
2023-07-23T22:45:34.525Z,6.30
2023-07-23T22:48:02.403Z,6.70
2023-07-23T22:50:30.811Z,6.80
2023-07-23T22:52:58.673Z,6.60
2023-07-23T22:55:28.485Z,8.60
2023-07-23T22:57:56.768Z,6.90
2023-07-23T23:00:24.690Z,7.00
2023-07-23T23:02:52.939Z,7.20
2023-07-23T23:05:21.474Z,8.30
2023-07-23T23:07:49.486Z,7.10
2023-07-23T23:10:17.273Z,7.30
2023-07-23T23:12:44.997Z,10.60
2023-07-23T23:15:12.648Z,7.00
2023-07-23T23:17:40.435Z,6.60
2023-07-23T23:20:08.798Z,7.10
2023-07-23T23:22:36.424Z,7.70
2023-07-23T23:25:04.562Z,6.80
2023-07-23T23:27:33.296Z,6.40
2023-07-23T23:30:01.020Z,5.40
2023-07-23T23:32:29.880Z,7.00
2023-07-23T23:34:57.605Z,5.70
2023-07-23T23:37:25.322Z,8.40
2023-07-23T23:39:52.993Z,6.60
2023-07-23T23:42:20.685Z,6.90
2023-07-23T23:44:48.820Z,8.10
2023-07-23T23:47:16.551Z,8.90
2023-07-23T23:49:44.358Z,7.80
2023-07-23T23:52:11.987Z,7.10
2023-07-23T23:54:39.698Z,6.90
2023-07-23T23:57:07.777Z,10.50
2023-07-23T23:59:35.494Z,6.80
